Newtown, North Dakota
Current Conditions -  °F | °C
As of 7:15 AM on Wednesday 26 Nov 2014 (Local Time) from K08D Reporting Station
Light Snow Light Snow  
Wind Chill:   Ceiling: 300
Heat Index:   Visibility: 10mi
Dew Point:   Wind: 3mph
Humidity: 92%   Direction: 90°E
Pressure: 30.25"   Gusts: NA
Location:  47.9603°N, 102.491°W
Report Text: K08D 261315Z AUTO 09003KT 10SM -SN OVC003 M14/M15 A3025 RMK AO2
Loading
Personal Weather Stations






























Interactive Weather Map New forecast layout! Learn more

10-Day Weather Forecast

Advertisements
Track Severe Weather on mobile